sensor_id;sensor_type;location;lat;lon;timestamp;pressure;altitude;pressure_sealevel;temperature;humidity
39265;BME280;42646;51.910;7.724;2023-06-24T00:00:05;101842.00;;;17.05;100.00
39265;BME280;42646;51.910;7.724;2023-06-24T00:02:35;101837.06;;;17.00;100.00
39265;BME280;42646;51.910;7.724;2023-06-24T00:05:05;101839.22;;;16.97;100.00
39265;BME280;42646;51.910;7.724;2023-06-24T00:07:35;101841.50;;;16.92;100.00
39265;BME280;42646;51.910;7.724;2023-06-24T00:10:11;101842.81;;;16.88;100.00
39265;BME280;42646;51.910;7.724;2023-06-24T00:12:41;101845.09;;;16.82;100.00
39265;BME280;42646;51.910;7.724;2023-06-24T00:15:10;101837.63;;;16.76;100.00
39265;BME280;42646;51.910;7.724;2023-06-24T00:17:40;101854.19;;;16.72;100.00
39265;BME280;42646;51.910;7.724;2023-06-24T00:20:09;101842.03;;;16.68;100.00
39265;BME280;42646;51.910;7.724;2023-06-24T00:22:40;101843.16;;;16.65;100.00
39265;BME280;42646;51.910;7.724;2023-06-24T00:25:10;101847.44;;;16.58;100.00
39265;BME280;42646;51.910;7.724;2023-06-24T00:27:38;101840.66;;;16.54;100.00
39265;BME280;42646;51.910;7.724;2023-06-24T00:30:06;101842.66;;;16.52;100.00
39265;BME280;42646;51.910;7.724;2023-06-24T00:32:37;101840.41;;;16.47;100.00
39265;BME280;42646;51.910;7.724;2023-06-24T00:35:29;101841.00;;;16.41;100.00
39265;BME280;42646;51.910;7.724;2023-06-24T00:37:56;101844.16;;;16.37;100.00
39265;BME280;42646;51.910;7.724;2023-06-24T00:40:26;101848.13;;;16.33;100.00
39265;BME280;42646;51.910;7.724;2023-06-24T00:42:54;101847.56;;;16.29;100.00
39265;BME280;42646;51.910;7.724;2023-06-24T00:45:22;101847.88;;;16.26;100.00
39265;BME280;42646;51.910;7.724;2023-06-24T00:47:52;101856.19;;;16.23;100.00
39265;BME280;42646;51.910;7.724;2023-06-24T00:50:22;101861.03;;;16.19;100.00
39265;BME280;42646;51.910;7.724;2023-06-24T00:52:52;101852.41;;;16.16;100.00
39265;BME280;42646;51.910;7.724;2023-06-24T00:55:21;101846.47;;;16.12;100.00
39265;BME280;42646;51.910;7.724;2023-06-24T00:57:52;101845.09;;;16.08;100.00
39265;BME280;42646;51.910;7.724;2023-06-24T01:00:21;101849.88;;;16.05;100.00
39265;BME280;42646;51.910;7.724;2023-06-24T01:02:51;101847.50;;;16.01;100.00
39265;BME280;42646;51.910;7.724;2023-06-24T01:05:19;101854.16;;;15.97;100.00
39265;BME280;42646;51.910;7.724;2023-06-24T01:07:52;101847.38;;;15.93;100.00
39265;BME280;42646;51.910;7.724;2023-06-24T01:10:23;101851.19;;;15.91;100.00
39265;BME280;42646;51.910;7.724;2023-06-24T01:12:51;101842.72;;;15.86;100.00
39265;BME280;42646;51.910;7.724;2023-06-24T01:15:23;101841.31;;;15.82;100.00
39265;BME280;42646;51.910;7.724;2023-06-24T01:18:01;101844.28;;;15.79;100.00
39265;BME280;42646;51.910;7.724;2023-06-24T01:20:35;101846.25;;;15.76;100.00
39265;BME280;42646;51.910;7.724;2023-06-24T01:23:29;101841.19;;;15.73;100.00
39265;BME280;42646;51.910;7.724;2023-06-24T01:26:19;101837.94;;;15.70;100.00
39265;BME280;42646;51.910;7.724;2023-06-24T01:29:00;101841.91;;;15.66;100.00
39265;BME280;42646;51.910;7.724;2023-06-24T01:31:39;101839.50;;;15.63;100.00
39265;BME280;42646;51.910;7.724;2023-06-24T01:34:15;101838.78;;;15.61;100.00
39265;BME280;42646;51.910;7.724;2023-06-24T01:36:56;101834.66;;;15.57;100.00
39265;BME280;42646;51.910;7.724;2023-06-24T01:39:27;101836.66;;;15.55;100.00
39265;BME280;42646;51.910;7.724;2023-06-24T01:42:05;101839.47;;;15.53;100.00
39265;BME280;42646;51.910;7.724;2023-06-24T01:44:34;101837.78;;;15.52;100.00
39265;BME280;42646;51.910;7.724;2023-06-24T01:47:05;101837.06;;;15.50;100.00
39265;BME280;42646;51.910;7.724;2023-06-24T01:49:38;101839.75;;;15.50;100.00
39265;BME280;42646;51.910;7.724;2023-06-24T01:52:08;101842.59;;;15.48;100.00
39265;BME280;42646;51.910;7.724;2023-06-24T01:55:01;101844.69;;;15.45;100.00
39265;BME280;42646;51.910;7.724;2023-06-24T01:57:34;101848.53;;;15.42;100.00
39265;BME280;42646;51.910;7.724;2023-06-24T02:00:06;101849.63;;;15.40;100.00
39265;BME280;42646;51.910;7.724;2023-06-24T02:02:50;101844.56;;;15.37;100.00
39265;BME280;42646;51.910;7.724;2023-06-24T02:05:20;101841.16;;;15.35;100.00
39265;BME280;42646;51.910;7.724;2023-06-24T02:07:49;101843.13;;;15.33;100.00
39265;BME280;42646;51.910;7.724;2023-06-24T02:10:20;101839.03;;;15.29;100.00
39265;BME280;42646;51.910;7.724;2023-06-24T02:12:50;101839.31;;;15.26;100.00
39265;BME280;42646;51.910;7.724;2023-06-24T02:15:20;101845.69;;;15.25;100.00
39265;BME280;42646;51.910;7.724;2023-06-24T02:18:16;101844.94;;;15.22;100.00
39265;BME280;42646;51.910;7.724;2023-06-24T02:20:48;101847.63;;;15.22;100.00
39265;BME280;42646;51.910;7.724;2023-06-24T02:23:19;101846.94;;;15.20;100.00
39265;BME280;42646;51.910;7.724;2023-06-24T02:25:52;101843.56;;;15.18;100.00
39265;BME280;42646;51.910;7.724;2023-06-24T02:28:21;101847.34;;;15.16;100.00
39265;BME280;42646;51.910;7.724;2023-06-24T02:30:49;101845.50;;;15.16;100.00
39265;BME280;42646;51.910;7.724;2023-06-24T02:33:20;101839.44;;;15.14;100.00
39265;BME280;42646;51.910;7.724;2023-06-24T02:35:47;101840.28;;;15.15;100.00
39265;BME280;42646;51.910;7.724;2023-06-24T02:38:41;101836.78;;;15.14;100.00
39265;BME280;42646;51.910;7.724;2023-06-24T02:41:09;101838.88;;;15.11;100.00
39265;BME280;42646;51.910;7.724;2023-06-24T02:43:37;101834.66;;;15.08;100.00
39265;BME280;42646;51.910;7.724;2023-06-24T02:46:05;101830.41;;;15.06;100.00
39265;BME280;42646;51.910;7.724;2023-06-24T02:48:37;101846.78;;;15.03;100.00
39265;BME280;42646;51.910;7.724;2023-06-24T02:51:07;101842.53;;;15.00;100.00
39265;BME280;42646;51.910;7.724;2023-06-24T02:53:38;101845.34;;;14.99;100.00
39265;BME280;42646;51.910;7.724;2023-06-24T02:56:08;101848.31;;;14.95;100.00
39265;BME280;42646;51.910;7.724;2023-06-24T02:58:43;101850.25;;;14.93;100.00
39265;BME280;42646;51.910;7.724;2023-06-24T03:01:18;101851.25;;;14.92;100.00
39265;BME280;42646;51.910;7.724;2023-06-24T03:03:55;101840.81;;;14.89;100.00
39265;BME280;42646;51.910;7.724;2023-06-24T03:06:23;101845.34;;;14.89;100.00
39265;BME280;42646;51.910;7.724;2023-06-24T03:08:57;101856.16;;;14.87;100.00
39265;BME280;42646;51.910;7.724;2023-06-24T03:11:26;101846.59;;;14.85;100.00
39265;BME280;42646;51.910;7.724;2023-06-24T03:13:57;101854.63;;;14.85;100.00
39265;BME280;42646;51.910;7.724;2023-06-24T03:16:34;101856.59;;;14.83;100.00
39265;BME280;42646;51.910;7.724;2023-06-24T03:19:08;101851.25;;;14.83;100.00
39265;BME280;42646;51.910;7.724;2023-06-24T03:21:37;101859.13;;;14.84;100.00
39265;BME280;42646;51.910;7.724;2023-06-24T03:24:15;101845.88;;;14.83;100.00
39265;BME280;42646;51.910;7.724;2023-06-24T03:26:47;101852.94;;;14.84;100.00
39265;BME280;42646;51.910;7.724;2023-06-24T03:29:18;101855.63;;;14.84;100.00
39265;BME280;42646;51.910;7.724;2023-06-24T03:32:03;101854.88;;;14.82;100.00
39265;BME280;42646;51.910;7.724;2023-06-24T03:34:33;101853.19;;;14.81;100.00
39265;BME280;42646;51.910;7.724;2023-06-24T03:37:00;101859.53;;;14.80;100.00
39265;BME280;42646;51.910;7.724;2023-06-24T03:39:32;101856.88;;;14.80;100.00
39265;BME280;42646;51.910;7.724;2023-06-24T03:42:01;101852.50;;;14.79;100.00
39265;BME280;42646;51.910;7.724;2023-06-24T03:44:29;101857.84;;;14.79;100.00
39265;BME280;42646;51.910;7.724;2023-06-24T03:46:57;101861.22;;;14.81;100.00
39265;BME280;42646;51.910;7.724;2023-06-24T03:49:25;101855.88;;;14.81;100.00
39265;BME280;42646;51.910;7.724;2023-06-24T03:52:19;101858.56;;;14.81;100.00
39265;BME280;42646;51.910;7.724;2023-06-24T03:54:49;101854.88;;;14.82;100.00
39265;BME280;42646;51.910;7.724;2023-06-24T03:57:17;101857.31;;;14.85;100.00
39265;BME280;42646;51.910;7.724;2023-06-24T03:59:45;101861.81;;;14.84;100.00
39265;BME280;42646;51.910;7.724;2023-06-24T04:02:16;101856.47;;;14.84;100.00
39265;BME280;42646;51.910;7.724;2023-06-24T04:04:44;101858.16;;;14.85;100.00
39265;BME280;42646;51.910;7.724;2023-06-24T04:07:12;101859.00;;;14.86;100.00
39265;BME280;42646;51.910;7.724;2023-06-24T04:09:42;101858.00;;;14.87;100.00
39265;BME280;42646;51.910;7.724;2023-06-24T04:12:10;101861.41;;;14.89;100.00
39265;BME280;42646;51.910;7.724;2023-06-24T04:14:38;101853.22;;;14.90;100.00
39265;BME280;42646;51.910;7.724;2023-06-24T04:17:06;101866.34;;;14.93;100.00
39265;BME280;42646;51.910;7.724;2023-06-24T04:19:34;101868.63;;;14.98;100.00
39265;BME280;42646;51.910;7.724;2023-06-24T04:22:02;101871.03;;;15.01;100.00
39265;BME280;42646;51.910;7.724;2023-06-24T04:24:58;101868.91;;;15.05;100.00
39265;BME280;42646;51.910;7.724;2023-06-24T04:27:26;101860.47;;;15.09;100.00
39265;BME280;42646;51.910;7.724;2023-06-24T04:29:55;101858.38;;;15.13;100.00
39265;BME280;42646;51.910;7.724;2023-06-24T04:32:25;101861.75;;;15.15;100.00
39265;BME280;42646;51.910;7.724;2023-06-24T04:35:19;101866.69;;;15.19;100.00
39265;BME280;42646;51.910;7.724;2023-06-24T04:37:47;101862.72;;;15.23;100.00
39265;BME280;42646;51.910;7.724;2023-06-24T04:40:19;101867.81;;;15.27;100.00
39265;BME280;42646;51.910;7.724;2023-06-24T04:42:47;101858.53;;;15.31;100.00
39265;BME280;42646;51.910;7.724;2023-06-24T04:45:15;101865.28;;;15.35;100.00
39265;BME280;42646;51.910;7.724;2023-06-24T04:47:42;101859.50;;;15.39;100.00
39265;BME280;42646;51.910;7.724;2023-06-24T04:50:11;101861.63;;;15.45;100.00
39265;BME280;42646;51.910;7.724;2023-06-24T04:52:39;101861.22;;;15.50;100.00
39265;BME280;42646;51.910;7.724;2023-06-24T04:55:08;101855.44;;;15.55;100.00
39265;BME280;42646;51.910;7.724;2023-06-24T04:58:02;101854.75;;;15.62;100.00
39265;BME280;42646;51.910;7.724;2023-06-24T05:00:30;101849.81;;;15.67;100.00
39265;BME280;42646;51.910;7.724;2023-06-24T05:02:58;101853.75;;;15.73;100.00
39265;BME280;42646;51.910;7.724;2023-06-24T05:05:26;101849.66;;;15.79;100.00
39265;BME280;42646;51.910;7.724;2023-06-24T05:07:57;101855.44;;;15.84;100.00
39265;BME280;42646;51.910;7.724;2023-06-24T05:10:26;101857.56;;;15.90;100.00
39265;BME280;42646;51.910;7.724;2023-06-24T05:12:54;101863.47;;;15.93;100.00
39265;BME280;42646;51.910;7.724;2023-06-24T05:15:24;101864.03;;;15.97;100.00
39265;BME280;42646;51.910;7.724;2023-06-24T05:17:56;101863.47;;;16.03;100.00
39265;BME280;42646;51.910;7.724;2023-06-24T05:20:48;101858.22;;;16.11;100.00
39265;BME280;42646;51.910;7.724;2023-06-24T05:23:17;101860.19;;;16.19;100.00
39265;BME280;42646;51.910;7.724;2023-06-24T05:25:45;101864.81;;;16.26;100.00
39265;BME280;42646;51.910;7.724;2023-06-24T05:28:14;101860.72;;;16.32;100.00
39265;BME280;42646;51.910;7.724;2023-06-24T05:30:44;101855.59;;;16.39;100.00
39265;BME280;42646;51.910;7.724;2023-06-24T05:33:11;101864.75;;;16.46;100.00
39265;BME280;42646;51.910;7.724;2023-06-24T05:35:40;101861.47;;;16.52;100.00
39265;BME280;42646;51.910;7.724;2023-06-24T05:38:08;101859.88;;;16.59;100.00
39265;BME280;42646;51.910;7.724;2023-06-24T05:40:36;101866.50;;;16.65;100.00
39265;BME280;42646;51.910;7.724;2023-06-24T05:43:04;101863.25;;;16.71;100.00
39265;BME280;42646;51.910;7.724;2023-06-24T05:45:32;101860.81;;;16.77;100.00
39265;BME280;42646;51.910;7.724;2023-06-24T05:48:02;101870.13;;;16.83;100.00
39265;BME280;42646;51.910;7.724;2023-06-24T05:50:31;101865.72;;;16.92;100.00
39265;BME280;42646;51.910;7.724;2023-06-24T05:52:59;101860.56;;;16.98;100.00
39265;BME280;42646;51.910;7.724;2023-06-24T05:55:27;101870.41;;;17.07;100.00
39265;BME280;42646;51.910;7.724;2023-06-24T05:57:55;101866.81;;;17.17;100.00
39265;BME280;42646;51.910;7.724;2023-06-24T06:00:24;101863.75;;;17.29;100.00
39265;BME280;42646;51.910;7.724;2023-06-24T06:02:52;101863.53;;;17.41;100.00
39265;BME280;42646;51.910;7.724;2023-06-24T06:05:23;101871.38;;;17.52;100.00
39265;BME280;42646;51.910;7.724;2023-06-24T06:07:51;101872.84;;;17.64;100.00
39265;BME280;42646;51.910;7.724;2023-06-24T06:10:20;101869.09;;;17.75;100.00
39265;BME280;42646;51.910;7.724;2023-06-24T06:12:49;101865.44;;;17.84;100.00
39265;BME280;42646;51.910;7.724;2023-06-24T06:15:17;101874.13;;;17.96;100.00
39265;BME280;42646;51.910;7.724;2023-06-24T06:17:45;101872.88;;;18.08;100.00
39265;BME280;42646;51.910;7.724;2023-06-24T06:20:14;101867.41;;;18.18;100.00
39265;BME280;42646;51.910;7.724;2023-06-24T06:22:43;101861.19;;;18.25;100.00
39265;BME280;42646;51.910;7.724;2023-06-24T06:25:11;101852.34;;;18.33;100.00
39265;BME280;42646;51.910;7.724;2023-06-24T06:27:39;101855.59;;;18.45;100.00
39265;BME280;42646;51.910;7.724;2023-06-24T06:30:08;101866.25;;;18.54;100.00
39265;BME280;42646;51.910;7.724;2023-06-24T06:32:35;101866.13;;;18.64;100.00
39265;BME280;42646;51.910;7.724;2023-06-24T06:35:04;101868.59;;;18.75;100.00
39265;BME280;42646;51.910;7.724;2023-06-24T06:37:31;101872.97;;;18.84;100.00
39265;BME280;42646;51.910;7.724;2023-06-24T06:40:01;101871.19;;;18.93;100.00
39265;BME280;42646;51.910;7.724;2023-06-24T06:42:29;101873.41;;;19.06;100.00
39265;BME280;42646;51.910;7.724;2023-06-24T06:44:57;101868.56;;;19.17;100.00
39265;BME280;42646;51.910;7.724;2023-06-24T06:47:26;101878.34;;;19.27;100.00
39265;BME280;42646;51.910;7.724;2023-06-24T06:49:54;101882.75;;;19.36;100.00
39265;BME280;42646;51.910;7.724;2023-06-24T06:52:22;101877.22;;;19.45;100.00
39265;BME280;42646;51.910;7.724;2023-06-24T06:54:50;101875.72;;;19.51;100.00
39265;BME280;42646;51.910;7.724;2023-06-24T06:57:20;101874.06;;;19.58;100.00
39265;BME280;42646;51.910;7.724;2023-06-24T06:59:50;101876.56;;;19.68;100.00
39265;BME280;42646;51.910;7.724;2023-06-24T07:02:18;101882.16;;;19.74;100.00
39265;BME280;42646;51.910;7.724;2023-06-24T07:04:46;101883.31;;;19.80;100.00
39265;BME280;42646;51.910;7.724;2023-06-24T07:07:14;101872.84;;;19.85;100.00
39265;BME280;42646;51.910;7.724;2023-06-24T07:09:42;101871.84;;;19.94;100.00
39265;BME280;42646;51.910;7.724;2023-06-24T07:12:09;101874.34;;;20.04;100.00
39265;BME280;42646;51.910;7.724;2023-06-24T07:14:40;101877.91;;;20.13;100.00
39265;BME280;42646;51.910;7.724;2023-06-24T07:17:07;101879.06;;;20.26;100.00
39265;BME280;42646;51.910;7.724;2023-06-24T07:19:35;101887.97;;;20.43;100.00
39265;BME280;42646;51.910;7.724;2023-06-24T07:22:03;101878.69;;;20.54;100.00
39265;BME280;42646;51.910;7.724;2023-06-24T07:24:31;101876.28;;;20.67;100.00
39265;BME280;42646;51.910;7.724;2023-06-24T07:26:58;101872.53;;;20.76;100.00
39265;BME280;42646;51.910;7.724;2023-06-24T07:29:26;101868.09;;;20.84;100.00
39265;BME280;42646;51.910;7.724;2023-06-24T07:31:56;101868.38;;;20.97;100.00
39265;BME280;42646;51.910;7.724;2023-06-24T07:34:24;101875.91;;;21.10;100.00
39265;BME280;42646;51.910;7.724;2023-06-24T07:36:52;101866.53;;;21.20;100.00
39265;BME280;42646;51.910;7.724;2023-06-24T07:39:19;101870.38;;;21.34;100.00
39265;BME280;42646;51.910;7.724;2023-06-24T07:41:47;101871.94;;;21.51;98.92
39265;BME280;42646;51.910;7.724;2023-06-24T07:44:15;101875.38;;;21.68;96.89
39265;BME280;42646;51.910;7.724;2023-06-24T07:46:43;101874.09;;;21.79;95.07
39265;BME280;42646;51.910;7.724;2023-06-24T07:49:16;101876.09;;;21.85;94.20
39265;BME280;42646;51.910;7.724;2023-06-24T07:51:44;101877.34;;;21.97;92.25
39265;BME280;42646;51.910;7.724;2023-06-24T07:54:12;101871.13;;;22.11;90.15
39265;BME280;42646;51.910;7.724;2023-06-24T07:56:40;101872.38;;;22.24;88.82
39265;BME280;42646;51.910;7.724;2023-06-24T07:59:08;101873.97;;;22.33;88.41
39265;BME280;42646;51.910;7.724;2023-06-24T08:01:36;101869.31;;;22.42;89.61
39265;BME280;42646;51.910;7.724;2023-06-24T08:04:04;101873.22;;;22.54;89.17
39265;BME280;42646;51.910;7.724;2023-06-24T08:06:33;101870.88;;;22.65;87.96
39265;BME280;42646;51.910;7.724;2023-06-24T08:09:01;101873.97;;;22.77;88.78
39265;BME280;42646;51.910;7.724;2023-06-24T08:11:29;101872.28;;;22.91;87.11
39265;BME280;42646;51.910;7.724;2023-06-24T08:13:57;101868.03;;;23.03;87.00
39265;BME280;42646;51.910;7.724;2023-06-24T08:16:25;101870.25;;;23.14;87.40
39265;BME280;42646;51.910;7.724;2023-06-24T08:18:54;101857.88;;;23.27;85.40
39265;BME280;42646;51.910;7.724;2023-06-24T08:21:22;101864.19;;;23.34;85.51
39265;BME280;42646;51.910;7.724;2023-06-24T08:23:51;101868.75;;;23.48;82.38
39265;BME280;42646;51.910;7.724;2023-06-24T08:26:23;101869.03;;;23.60;82.17
39265;BME280;42646;51.910;7.724;2023-06-24T08:28:51;101868.75;;;23.69;81.91
39265;BME280;42646;51.910;7.724;2023-06-24T08:31:18;101861.91;;;23.74;80.12
39265;BME280;42646;51.910;7.724;2023-06-24T08:33:51;101870.50;;;23.77;79.80
39265;BME280;42646;51.910;7.724;2023-06-24T08:36:21;101870.94;;;23.81;79.27
39265;BME280;42646;51.910;7.724;2023-06-24T08:38:55;101866.59;;;23.86;79.22
39265;BME280;42646;51.910;7.724;2023-06-24T08:41:23;101863.56;;;23.96;80.08
39265;BME280;42646;51.910;7.724;2023-06-24T08:43:52;101862.81;;;24.09;78.80
39265;BME280;42646;51.910;7.724;2023-06-24T08:46:20;101859.72;;;24.18;76.41
39265;BME280;42646;51.910;7.724;2023-06-24T08:48:48;101863.78;;;24.29;75.77
39265;BME280;42646;51.910;7.724;2023-06-24T08:51:20;101865.06;;;24.33;74.32
39265;BME280;42646;51.910;7.724;2023-06-24T08:53:51;101852.13;;;24.35;73.59
39265;BME280;42646;51.910;7.724;2023-06-24T08:56:46;101846.47;;;24.37;73.43
39265;BME280;42646;51.910;7.724;2023-06-24T08:59:38;101839.81;;;24.39;73.12
39265;BME280;42646;51.910;7.724;2023-06-24T09:02:07;101844.84;;;24.42;72.52
39265;BME280;42646;51.910;7.724;2023-06-24T09:04:35;101845.75;;;24.49;73.29
39265;BME280;42646;51.910;7.724;2023-06-24T09:07:03;101840.75;;;24.60;73.63
39265;BME280;42646;51.910;7.724;2023-06-24T09:09:42;101846.88;;;24.68;73.25
39265;BME280;42646;51.910;7.724;2023-06-24T09:12:13;101842.50;;;24.74;73.29
39265;BME280;42646;51.910;7.724;2023-06-24T09:15:14;101841.50;;;24.88;70.21
39265;BME280;42646;51.910;7.724;2023-06-24T09:17:43;101836.06;;;24.88;69.97
39265;BME280;42646;51.910;7.724;2023-06-24T09:20:15;101842.78;;;24.92;70.35
39265;BME280;42646;51.910;7.724;2023-06-24T09:22:48;101839.44;;;24.97;68.54
39265;BME280;42646;51.910;7.724;2023-06-24T09:25:17;101832.75;;;24.99;68.33
39265;BME280;42646;51.910;7.724;2023-06-24T09:27:49;101823.13;;;25.03;68.39
39265;BME280;42646;51.910;7.724;2023-06-24T09:30:19;101819.41;;;25.11;66.59
39265;BME280;42646;51.910;7.724;2023-06-24T09:32:48;101830.94;;;25.20;66.25
39265;BME280;42646;51.910;7.724;2023-06-24T09:35:18;101814.81;;;25.25;67.46
39265;BME280;42646;51.910;7.724;2023-06-24T09:37:49;101809.38;;;25.31;66.09
39265;BME280;42646;51.910;7.724;2023-06-24T09:40:17;101812.13;;;25.45;64.88
39265;BME280;42646;51.910;7.724;2023-06-24T09:42:51;101814.22;;;25.43;64.56
39265;BME280;42646;51.910;7.724;2023-06-24T09:45:25;101816.09;;;25.42;63.65
39265;BME280;42646;51.910;7.724;2023-06-24T09:47:55;101812.31;;;25.43;63.88
39265;BME280;42646;51.910;7.724;2023-06-24T09:50:24;101812.13;;;25.45;64.21
39265;BME280;42646;51.910;7.724;2023-06-24T09:52:52;101807.31;;;25.47;66.15
39265;BME280;42646;51.910;7.724;2023-06-24T09:55:21;101815.69;;;25.58;66.57
39265;BME280;42646;51.910;7.724;2023-06-24T09:57:54;101811.91;;;25.66;67.86
39265;BME280;42646;51.910;7.724;2023-06-24T10:00:24;101812.38;;;25.76;68.27
39265;BME280;42646;51.910;7.724;2023-06-24T10:02:53;101803.13;;;25.77;66.53
39265;BME280;42646;51.910;7.724;2023-06-24T10:05:26;101808.19;;;25.74;66.45
39265;BME280;42646;51.910;7.724;2023-06-24T10:07:54;101808.19;;;25.74;66.78
39265;BME280;42646;51.910;7.724;2023-06-24T10:10:22;101799.34;;;25.78;66.26
39265;BME280;42646;51.910;7.724;2023-06-24T10:12:49;101799.34;;;25.78;65.06
39265;BME280;42646;51.910;7.724;2023-06-24T10:15:18;101794.34;;;25.82;65.91
39265;BME280;42646;51.910;7.724;2023-06-24T10:17:47;101797.03;;;25.89;67.41
39265;BME280;42646;51.910;7.724;2023-06-24T10:20:23;101799.53;;;25.97;64.08
39265;BME280;42646;51.910;7.724;2023-06-24T10:22:52;101783.81;;;26.05;62.33
39265;BME280;42646;51.910;7.724;2023-06-24T10:25:20;101778.75;;;26.02;63.22
39265;BME280;42646;51.910;7.724;2023-06-24T10:27:53;101783.59;;;26.07;63.18
39265;BME280;42646;51.910;7.724;2023-06-24T10:30:22;101783.38;;;26.15;63.25
39265;BME280;42646;51.910;7.724;2023-06-24T10:32:54;101784.63;;;26.06;62.73
39265;BME280;42646;51.910;7.724;2023-06-24T10:35:23;101777.09;;;26.01;62.37
39265;BME280;42646;51.910;7.724;2023-06-24T10:37:58;101768.91;;;26.01;60.53
39265;BME280;42646;51.910;7.724;2023-06-24T10:40:37;101767.47;;;25.92;62.13
39265;BME280;42646;51.910;7.724;2023-06-24T10:43:25;101772.09;;;25.92;62.65
39265;BME280;42646;51.910;7.724;2023-06-24T10:45:57;101769.56;;;25.83;63.18
39265;BME280;42646;51.910;7.724;2023-06-24T10:48:25;101771.66;;;25.88;64.13
39265;BME280;42646;51.910;7.724;2023-06-24T10:50:55;101759.28;;;25.92;64.77
39265;BME280;42646;51.910;7.724;2023-06-24T10:53:24;101758.00;;;26.01;65.78
39265;BME280;42646;51.910;7.724;2023-06-24T10:55:57;101748.53;;;26.10;65.63
39265;BME280;42646;51.910;7.724;2023-06-24T10:58:24;101756.91;;;26.22;62.62
39265;BME280;42646;51.910;7.724;2023-06-24T11:01:07;101759.22;;;26.19;62.42
39265;BME280;42646;51.910;7.724;2023-06-24T11:03:39;101752.72;;;26.13;63.63
39265;BME280;42646;51.910;7.724;2023-06-24T11:06:10;101748.94;;;26.14;62.76
39265;BME280;42646;51.910;7.724;2023-06-24T11:08:44;101747.47;;;26.18;63.46
39265;BME280;42646;51.910;7.724;2023-06-24T11:11:19;101741.97;;;26.25;61.94
39265;BME280;42646;51.910;7.724;2023-06-24T11:13:50;101744.03;;;26.36;60.71
39265;BME280;42646;51.910;7.724;2023-06-24T11:16:23;101744.28;;;26.28;61.33
39265;BME280;42646;51.910;7.724;2023-06-24T11:18:51;101744.47;;;26.26;61.63
39265;BME280;42646;51.910;7.724;2023-06-24T11:21:19;101745.53;;;26.25;62.06
39265;BME280;42646;51.910;7.724;2023-06-24T11:23:47;101744.69;;;26.31;62.89
39265;BME280;42646;51.910;7.724;2023-06-24T11:26:15;101739.22;;;26.45;61.73
39265;BME280;42646;51.910;7.724;2023-06-24T11:28:42;101737.91;;;26.54;62.66
39265;BME280;42646;51.910;7.724;2023-06-24T11:31:10;101742.25;;;26.61;61.61
39265;BME280;42646;51.910;7.724;2023-06-24T11:33:40;101742.06;;;26.63;61.48
39265;BME280;42646;51.910;7.724;2023-06-24T11:36:09;101735.97;;;26.61;59.91
39265;BME280;42646;51.910;7.724;2023-06-24T11:38:37;101735.13;;;26.60;60.14
39265;BME280;42646;51.910;7.724;2023-06-24T11:41:04;101733.41;;;26.66;59.20
39265;BME280;42646;51.910;7.724;2023-06-24T11:43:33;101731.94;;;26.70;60.26
39265;BME280;42646;51.910;7.724;2023-06-24T11:46:02;101736.06;;;26.79;60.89
39265;BME280;42646;51.910;7.724;2023-06-24T11:48:30;101739.34;;;26.95;56.90
39265;BME280;42646;51.910;7.724;2023-06-24T11:50:59;101734.66;;;27.02;56.47
39265;BME280;42646;51.910;7.724;2023-06-24T11:53:30;101731.09;;;27.08;55.62
39265;BME280;42646;51.910;7.724;2023-06-24T11:55:58;101719.00;;;27.22;53.20
39265;BME280;42646;51.910;7.724;2023-06-24T11:58:26;101728.88;;;27.23;54.15
39265;BME280;42646;51.910;7.724;2023-06-24T12:00:56;101725.25;;;27.29;56.17
39265;BME280;42646;51.910;7.724;2023-06-24T12:03:23;101720.13;;;27.39;55.89
39265;BME280;42646;51.910;7.724;2023-06-24T12:05:53;101726.72;;;27.50;56.30
39265;BME280;42646;51.910;7.724;2023-06-24T12:08:22;101721.81;;;27.59;55.15
39265;BME280;42646;51.910;7.724;2023-06-24T12:10:52;101716.69;;;27.69;55.10
39265;BME280;42646;51.910;7.724;2023-06-24T12:13:21;101722.47;;;27.79;56.41
39265;BME280;42646;51.910;7.724;2023-06-24T12:15:49;101721.56;;;27.85;53.92
39265;BME280;42646;51.910;7.724;2023-06-24T12:18:18;101714.34;;;27.91;51.73
39265;BME280;42646;51.910;7.724;2023-06-24T12:20:47;101721.06;;;27.95;51.34
39265;BME280;42646;51.910;7.724;2023-06-24T12:23:15;101721.41;;;27.99;50.09
39265;BME280;42646;51.910;7.724;2023-06-24T12:25:44;101710.41;;;28.05;48.90
39265;BME280;42646;51.910;7.724;2023-06-24T12:28:12;101708.66;;;28.11;48.13
39265;BME280;42646;51.910;7.724;2023-06-24T12:30:39;101716.56;;;28.19;47.76
39265;BME280;42646;51.910;7.724;2023-06-24T12:33:07;101709.47;;;28.30;45.23
39265;BME280;42646;51.910;7.724;2023-06-24T12:35:35;101700.00;;;28.32;43.38
39265;BME280;42646;51.910;7.724;2023-06-24T12:38:03;101701.47;;;28.28;44.09
39265;BME280;42646;51.910;7.724;2023-06-24T12:40:31;101702.50;;;28.34;45.40
39265;BME280;42646;51.910;7.724;2023-06-24T12:43:00;101699.31;;;28.37;44.70
39265;BME280;42646;51.910;7.724;2023-06-24T12:45:29;101698.63;;;28.41;44.29
39265;BME280;42646;51.910;7.724;2023-06-24T12:47:57;101694.97;;;28.47;42.68
39265;BME280;42646;51.910;7.724;2023-06-24T12:50:26;101689.25;;;28.49;43.04
39265;BME280;42646;51.910;7.724;2023-06-24T12:52:53;101696.78;;;28.54;42.48
39265;BME280;42646;51.910;7.724;2023-06-24T12:55:21;101692.94;;;28.55;42.71
39265;BME280;42646;51.910;7.724;2023-06-24T12:57:49;101685.13;;;28.58;42.12
39265;BME280;42646;51.910;7.724;2023-06-24T13:00:21;101681.66;;;28.63;43.53